Time;durP1;ratioP1;P1;durP2;ratioP2;P2;SDS_P1;SDS_P2;PMS_P1;PMS_P2;Temp;Humidity;BMP_temperature;BMP_pressure;BME280_temperature;BME280_humidity;BME280_pressure;Samples;Min_cycle;Max_cycle;Signal;HPM_P1;HPM_P2
2022/12/17 13:06:38;;;;;;;;;;;-1.00;99.90;;;;;;5127571;28;20530;-84
2022/12/17 13:09:14;;;;;;;58.78;23.25;;;-0.90;99.90;;;;;;5109158;28;19942;-83
2022/12/17 13:12:04;;;;;;;63.92;25.20;;;-0.90;99.90;;;;;;5127373;28;20048;-83
2022/12/17 13:14:35;;;;;;;67.60;24.45;;;-0.40;99.90;;;;;;5073323;28;20059;-84
2022/12/17 13:17:17;;;;;;;63.75;23.67;;;-0.80;99.90;;;;;;5110016;28;20118;-83
2022/12/17 13:19:57;;;;;;;58.13;23.63;;;-0.80;99.90;;;;;;5111179;28;20113;-83
2022/12/17 13:22:24;;;;;;;56.92;23.05;;;-0.80;99.90;;;;;;5122585;28;20491;-84
2022/12/17 13:24:54;;;;;;;63.17;24.38;;;-0.90;99.90;;;;;;5119011;28;20051;-84
2022/12/17 13:27:32;;;;;;;56.22;23.45;;;-0.90;99.90;;;;;;5114107;28;20050;-83
2022/12/17 13:30:30;;;;;;;58.42;23.80;;;-0.90;99.90;;;;;;5116667;28;20040;-83
2022/12/17 13:33:29;;;;;;;61.90;24.40;;;-0.90;99.90;;;;;;5092595;28;20036;-84
2022/12/17 13:36:02;;;;;;;61.45;24.38;;;-0.90;99.90;;;;;;5109421;28;20118;-83
2022/12/17 13:39:03;;;;;;;63.22;23.55;;;-0.90;99.90;;;;;;5109598;28;20036;-83
2022/12/17 13:41:32;;;;;;;56.45;23.42;;;-0.90;99.90;;;;;;5108642;28;20502;-84
2022/12/17 13:44:03;;;;;;;54.65;22.35;;;-0.90;99.90;;;;;;5108877;28;20376;-82
2022/12/17 13:46:45;;;;;;;56.22;23.63;;;-0.90;99.90;;;;;;5106582;28;20040;-82
2022/12/17 13:49:25;;;;;;;64.18;25.60;;;-1.00;99.90;;;;;;5139279;28;20035;-82
2022/12/17 13:52:17;;;;;;;60.72;23.55;;;-0.90;99.90;;;;;;5108598;28;20789;-82
2022/12/17 13:54:44;;;;;;;64.63;22.95;;;-0.90;99.90;;;;;;5108468;28;20051;-83
2022/12/17 13:57:22;;;;;;;60.20;24.30;;;-0.90;99.90;;;;;;5108426;28;20039;-82
2022/12/17 13:59:51;;;;;;;58.25;24.30;;;-0.90;99.90;;;;;;5108757;28;20127;-82
2022/12/17 14:02:26;;;;;;;62.42;24.92;;;-0.40;99.90;;;;;;5108340;28;20492;-82
2022/12/17 14:04:58;;;;;;;58.28;24.17;;;-1.00;99.90;;;;;;5117690;28;20493;-82
2022/12/17 14:07:27;;;;;;;58.55;23.83;;;-1.00;99.90;;;;;;5128965;28;20127;-82
2022/12/17 14:09:55;;;;;;;62.45;24.35;;;-1.00;99.90;;;;;;5145652;28;20070;-82
2022/12/17 14:12:25;;;;;;;62.65;24.48;;;-1.00;99.90;;;;;;5084507;28;20040;-81
2022/12/17 14:15:09;;;;;;;61.67;25.33;;;-1.10;99.90;;;;;;5126079;28;20499;-81
2022/12/17 14:17:47;;;;;;;62.55;24.13;;;-1.00;99.90;;;;;;5116922;28;20047;-83
2022/12/17 14:20:18;;;;;;;60.78;24.60;;;-1.10;99.90;;;;;;5110958;28;20036;-82
2022/12/17 14:22:51;;;;;;;63.53;24.23;;;-1.10;99.90;;;;;;5114244;28;20122;-82
2022/12/17 14:25:21;;;;;;;63.50;24.23;;;-1.10;99.90;;;;;;5143215;28;20058;-82
2022/12/17 14:28:01;;;;;;;65.35;25.30;;;-1.10;99.90;;;;;;5108578;28;20434;-82
2022/12/17 14:30:39;;;;;;;66.60;24.25;;;-1.10;99.90;;;;;;5108678;28;20048;-83
2022/12/17 14:33:26;;;;;;;61.92;23.83;;;-1.10;99.90;;;;;;5119832;28;20036;-82
2022/12/17 14:35:55;;;;;;;58.78;23.70;;;-1.10;99.90;;;;;;5113836;28;20192;-81
2022/12/17 14:38:23;;;;;;;67.05;25.23;;;-1.10;99.90;;;;;;5107730;28;20108;-83
2022/12/17 14:40:50;;;;;;;61.85;23.90;;;-1.20;99.90;;;;;;5091793;28;20036;-82
2022/12/17 14:43:25;;;;;;;67.32;24.77;;;-1.20;99.90;;;;;;5104503;28;20049;-82
2022/12/17 14:49:01;;;;;;;63.35;22.73;;;-1.20;99.90;;;;;;5108944;28;20139;-81
2022/12/17 14:51:32;;;;;;;63.67;23.45;;;-1.20;99.90;;;;;;5109092;28;20045;-82
2022/12/17 14:54:28;;;;;;;63.80;23.08;;;-1.20;99.90;;;;;;5108500;28;20040;-82
2022/12/17 14:56:57;;;;;;;62.50;23.75;;;-1.30;99.90;;;;;;5124272;28;20048;-82
2022/12/17 14:59:35;;;;;;;57.35;22.67;;;-1.20;99.90;;;;;;5095255;28;20040;-82
2022/12/17 15:02:09;;;;;;;60.58;23.00;;;-1.30;99.90;;;;;;5111857;28;20040;-82
2022/12/17 15:04:38;;;;;;;56.58;21.88;;;-1.30;99.90;;;;;;5128205;28;20052;-83
2022/12/17 15:07:06;;;;;;;63.17;22.15;;;-1.40;99.90;;;;;;5111370;28;20517;-82
2022/12/17 15:09:36;;;;;;;59.42;21.77;;;-1.40;99.90;;;;;;5111351;28;20443;-82
2022/12/17 15:12:04;;;;;;;53.78;21.50;;;-1.40;99.90;;;;;;5128087;28;20040;-82
2022/12/17 15:14:30;;;;;;;64.55;22.58;;;-1.50;99.90;;;;;;5128413;28;20055;-84
2022/12/17 15:16:58;;;;;;;61.83;22.58;;;-1.50;99.90;;;;;;5112938;28;20040;-82
2022/12/17 15:19:25;;;;;;;57.13;23.60;;;-1.50;99.90;;;;;;5094700;28;20040;-83
2022/12/17 15:21:51;;;;;;;64.70;22.23;;;-1.60;99.90;;;;;;5111756;28;20439;-83
2022/12/17 15:24:19;;;;;;;64.60;22.45;;;-1.60;99.90;;;;;;5109829;28;20041;-83
2022/12/17 15:26:47;;;;;;;71.78;23.08;;;-1.60;99.90;;;;;;5095657;28;20047;-84
2022/12/17 15:29:14;;;;;;;71.00;23.02;;;-1.60;99.90;;;;;;5128345;28;20404;-83
2022/12/17 15:31:40;;;;;;;72.15;22.52;;;-0.70;99.90;;;;;;5095038;28;20082;-82
2022/12/17 15:34:10;;;;;;;64.78;21.70;;;-1.10;99.90;;;;;;5095149;28;20044;-82
2022/12/17 15:36:36;;;;;;;70.13;24.13;;;-1.70;99.90;;;;;;5094220;28;20075;-83
2022/12/17 15:39:07;;;;;;;69.82;21.90;;;-1.70;99.90;;;;;;5074671;28;20133;-83
2022/12/17 15:44:19;;;;;;;75.43;22.00;;;-1.20;99.90;;;;;;5115093;28;20495;-82
2022/12/17 15:46:46;;;;;;;64.38;23.40;;;-1.80;99.90;;;;;;5121341;28;20059;-82
2022/12/17 15:49:13;;;;;;;68.20;21.63;;;-1.70;99.90;;;;;;5088573;28;20039;-81
2022/12/17 15:51:39;;;;;;;76.22;23.17;;;-1.80;99.90;;;;;;5119416;28;20056;-83
2022/12/17 15:54:06;;;;;;;73.70;23.08;;;-1.00;99.90;;;;;;5127406;28;20084;-82
2022/12/17 15:56:33;;;;;;;69.07;23.15;;;-1.90;99.90;;;;;;5096034;28;20067;-82
2022/12/17 15:59:00;;;;;;;75.10;22.95;;;-1.20;99.90;;;;;;5116058;28;20040;-82
2022/12/17 16:01:27;;;;;;;77.50;23.42;;;-1.90;99.90;;;;;;5093478;28;20031;-82
2022/12/17 16:03:54;;;;;;;64.32;21.25;;;-1.90;99.90;;;;;;5081810;28;20093;-81
2022/12/17 16:06:20;;;;;;;77.65;21.67;;;-1.90;99.90;;;;;;5115382;28;20039;-82
2022/12/17 16:08:47;;;;;;;76.00;22.35;;;-1.90;99.90;;;;;;5088880;28;20040;-81
2022/12/17 16:11:14;;;;;;;69.85;23.02;;;-1.90;99.90;;;;;;5111942;28;20043;-83
2022/12/17 16:13:41;;;;;;;80.45;22.17;;;-1.90;99.90;;;;;;5094480;28;20062;-84
2022/12/17 16:16:08;;;;;;;81.07;23.67;;;-1.90;99.90;;;;;;5093624;28;20048;-83
2022/12/17 16:18:37;;;;;;;75.78;23.20;;;-1.90;99.90;;;;;;5090938;28;20052;-83
2022/12/17 16:21:05;;;;;;;80.07;22.98;;;-1.90;99.90;;;;;;5110921;28;20028;-83
2022/12/17 16:23:33;;;;;;;82.00;23.35;;;-1.90;99.90;;;;;;5110030;28;20039;-83
2022/12/17 16:26:01;;;;;;;72.93;24.05;;;-2.00;99.90;;;;;;5127644;28;20036;-84
2022/12/17 16:28:29;;;;;;;69.63;21.83;;;-2.00;99.90;;;;;;5102628;28;20518;-84
2022/12/17 16:31:09;;;;;;;79.47;23.23;;;-2.00;99.90;;;;;;5077260;28;20036;-83
2022/12/17 16:33:40;;;;;;;77.97;26.17;;;-2.00;99.90;;;;;;5127285;28;20039;-84
2022/12/17 16:36:10;;;;;;;78.45;23.40;;;-1.70;99.90;;;;;;5110695;28;20043;-83
2022/12/17 16:38:43;;;;;;;85.25;24.27;;;-2.10;99.90;;;;;;5110284;28;20053;-83
2022/12/17 16:41:10;;;;;;;76.68;21.50;;;-2.10;99.90;;;;;;5126878;28;20135;-84
2022/12/17 16:43:36;;;;;;;82.10;24.02;;;-2.10;99.90;;;;;;5076728;28;20135;-84
2022/12/17 16:46:03;;;;;;;82.85;23.00;;;-1.30;99.90;;;;;;5110865;28;20040;-84
2022/12/17 16:48:36;;;;;;;83.70;21.80;;;-2.10;99.90;;;;;;5093215;28;20412;-83
2022/12/17 16:51:17;;;;;;;75.40;22.00;;;-2.10;99.90;;;;;;5127328;28;20487;-82
2022/12/17 16:53:44;;;;;;;70.03;19.98;;;-2.10;99.90;;;;;;5095032;28;20036;-83
2022/12/17 16:56:22;;;;;;;86.00;22.00;;;-2.10;99.90;;;;;;5126768;28;20044;-83
2022/12/17 16:58:49;;;;;;;76.10;21.20;;;-2.20;99.90;;;;;;5120314;28;20407;-82
2022/12/17 17:01:21;;;;;;;83.20;22.25;;;-2.20;99.90;;;;;;5092756;28;20131;-82
2022/12/17 17:03:48;;;;;;;83.25;20.27;;;-2.10;99.90;;;;;;5076096;28;20114;-83
2022/12/17 17:06:16;;;;;;;76.95;20.23;;;-2.20;99.90;;;;;;5092985;28;20563;-83
2022/12/17 17:08:43;;;;;;;79.28;21.70;;;-2.30;99.90;;;;;;5126476;28;20031;-84
2022/12/17 17:11:14;;;;;;;80.88;21.20;;;-2.30;99.90;;;;;;5109959;28;20059;-83
2022/12/17 17:13:41;;;;;;;78.60;20.58;;;-2.30;99.90;;;;;;5119612;28;20414;-83
2022/12/17 17:16:09;;;;;;;77.47;21.98;;;-2.30;99.90;;;;;;5119470;28;20123;-83
2022/12/17 17:18:36;;;;;;;72.93;20.92;;;-2.30;99.90;;;;;;5122889;28;20130;-83
2022/12/17 17:21:23;;;;;;;80.00;22.50;;;-2.30;99.90;;;;;;5109218;28;20040;-83
2022/12/17 17:24:02;;;;;;;73.15;21.40;;;-2.30;99.90;;;;;;5126087;28;20040;-83
2022/12/17 17:26:31;;;;;;;73.05;21.50;;;-2.30;99.90;;;;;;5113701;28;20036;-82
2022/12/17 17:28:58;;;;;;;80.90;22.75;;;-2.30;99.90;;;;;;5128196;28;20036;-83
2022/12/17 17:31:25;;;;;;;83.82;22.63;;;-2.30;99.90;;;;;;5109597;28;20506;-83
2022/12/17 17:33:53;;;;;;;72.60;22.10;;;-2.30;99.90;;;;;;5101553;28;20122;-82
2022/12/17 17:36:22;;;;;;;75.68;21.67;;;-2.30;99.90;;;;;;5122241;28;20044;-80
2022/12/17 17:38:53;;;;;;;88.13;24.02;;;-2.30;99.90;;;;;;5118192;28;20683;-83
2022/12/17 17:41:22;;;;;;;87.25;24.17;;;-2.30;99.90;;;;;;5105242;28;20043;-83
2022/12/17 17:44:02;;;;;;;91.70;24.40;;;-2.30;99.90;;;;;;5123927;28;20047;-82
2022/12/17 17:46:30;;;;;;;77.78;22.50;;;-2.30;99.90;;;;;;5128161;28;20043;-82
2022/12/17 17:48:58;;;;;;;83.88;22.95;;;-2.30;99.90;;;;;;5114254;28;20039;-83
2022/12/17 17:51:28;;;;;;;78.85;24.30;;;-1.80;99.90;;;;;;5108290;28;20053;-82
2022/12/17 17:53:55;;;;;;;83.10;24.00;;;-2.30;99.90;;;;;;5107391;28;20400;-82
2022/12/17 17:56:28;;;;;;;75.47;24.52;;;-2.40;99.90;;;;;;5108980;28;20066;-82
2022/12/17 17:58:58;;;;;;;81.45;25.08;;;-2.30;99.90;;;;;;5108730;28;20052;-82
2022/12/17 18:01:28;;;;;;;79.28;23.25;;;-2.40;99.90;;;;;;5119384;28;20048;-82
2022/12/17 18:03:56;;;;;;;87.70;24.38;;;-2.40;99.90;;;;;;5107113;28;20044;-82
2022/12/17 18:06:24;;;;;;;92.13;25.65;;;-2.40;99.90;;;;;;5137583;28;20156;-83
2022/12/17 18:08:51;;;;;;;101.70;29.60;;;-2.40;99.90;;;;;;5110418;28;20040;-82
2022/12/17 18:11:19;;;;;;;93.38;26.95;;;-2.40;99.90;;;;;;5098035;28;20552;-82
2022/12/17 18:13:55;;;;;;;90.40;26.17;;;-2.40;99.90;;;;;;5117263;28;20092;-84
2022/12/17 18:16:31;;;;;;;93.90;25.55;;;-2.40;99.90;;;;;;5122715;28;20100;-83
2022/12/17 18:19:09;;;;;;;95.22;26.27;;;-2.40;99.90;;;;;;5126440;28;20086;-83
2022/12/17 18:21:37;;;;;;;87.03;25.23;;;-2.40;99.90;;;;;;5108609;28;20193;-84
2022/12/17 18:24:05;;;;;;;86.95;28.08;;;-1.90;99.90;;;;;;5088640;28;20042;-83
2022/12/17 18:26:36;;;;;;;85.70;26.67;;;-2.40;99.90;;;;;;5105136;28;20044;-83
2022/12/17 18:29:11;;;;;;;88.88;27.40;;;-2.50;99.90;;;;;;5088883;28;20090;-83
2022/12/17 18:31:38;;;;;;;90.82;27.77;;;-2.40;99.90;;;;;;5095297;28;20051;-83
2022/12/17 18:34:06;;;;;;;89.18;26.98;;;-2.10;99.90;;;;;;5108588;28;20043;-82
2022/12/17 18:36:36;;;;;;;91.43;27.85;;;-2.50;99.90;;;;;;5108450;28;20036;-83
2022/12/17 18:39:18;;;;;;;85.18;27.95;;;-2.50;99.90;;;;;;5099945;28;20040;-83
2022/12/17 18:44:35;;;;;;;95.40;28.95;;;-2.50;99.90;;;;;;5125337;28;20102;-83
2022/12/17 18:47:01;;;;;;;85.30;30.05;;;-2.50;99.90;;;;;;5125520;28;20115;-83
2022/12/17 18:49:28;;;;;;;84.65;28.38;;;-2.60;99.90;;;;;;5125320;28;20119;-84
2022/12/17 18:51:55;;;;;;;97.65;29.85;;;-2.60;99.90;;;;;;5107147;28;20044;-82
2022/12/17 18:54:27;;;;;;;105.00;32.83;;;-2.50;99.90;;;;;;5091623;28;20042;-83
2022/12/17 18:56:56;;;;;;;98.80;31.05;;;-2.50;99.90;;;;;;5108672;28;20123;-83
2022/12/17 18:59:25;;;;;;;99.78;30.70;;;-2.50;99.90;;;;;;5108245;28;20051;-83
2022/12/17 19:01:54;;;;;;;109.38;33.05;;;-2.60;99.90;;;;;;5124782;28;20036;-82
2022/12/17 19:04:21;;;;;;;110.72;33.65;;;-2.60;99.90;;;;;;5088779;28;20044;-82
2022/12/17 19:06:50;;;;;;;105.10;33.03;;;-2.60;99.90;;;;;;5094812;28;20032;-82
2022/12/17 19:09:18;;;;;;;111.90;33.65;;;-2.60;99.90;;;;;;5133931;28;20439;-82
2022/12/17 19:11:45;;;;;;;109.50;33.88;;;-2.60;99.90;;;;;;5112186;28;20047;-81
2022/12/17 19:14:12;;;;;;;108.18;33.50;;;-2.60;99.90;;;;;;5102007;28;20032;-83
2022/12/17 19:16:39;;;;;;;110.53;34.58;;;-2.60;99.90;;;;;;5075602;28;20381;-82
2022/12/17 19:19:05;;;;;;;108.15;34.25;;;-2.60;99.90;;;;;;5120010;28;20047;-81
2022/12/17 19:21:33;;;;;;;109.55;33.40;;;-2.70;99.90;;;;;;5081916;28;20051;-82
2022/12/17 19:24:02;;;;;;;113.63;35.80;;;-2.60;99.90;;;;;;5108299;28;20044;-82
2022/12/17 19:26:30;;;;;;;116.40;34.08;;;-2.60;99.90;;;;;;5119266;28;20047;-83
2022/12/17 19:28:58;;;;;;;113.60;33.90;;;-2.60;99.90;;;;;;5102833;28;20035;-82
2022/12/17 19:31:28;;;;;;;118.93;36.38;;;-2.70;99.90;;;;;;5136094;28;20118;-83
2022/12/17 19:33:57;;;;;;;109.45;34.03;;;-2.70;99.90;;;;;;5144527;28;20051;-83
2022/12/17 19:36:25;;;;;;;104.72;32.25;;;-2.60;99.90;;;;;;5107700;28;20527;-82
2022/12/17 19:38:54;;;;;;;104.43;34.38;;;-2.70;99.90;;;;;;5097062;28;20036;-84
2022/12/17 19:41:22;;;;;;;116.43;33.92;;;-2.70;99.90;;;;;;5121664;28;20044;-84
2022/12/17 19:43:54;;;;;;;117.57;36.47;;;-2.70;99.90;;;;;;5142563;28;20495;-83
2022/12/17 19:46:24;;;;;;;112.82;35.45;;;-2.70;99.90;;;;;;5115867;28;20067;-83
2022/12/17 19:48:52;;;;;;;102.28;33.95;;;-2.70;99.90;;;;;;5115567;28;20086;-83
2022/12/17 19:51:22;;;;;;;107.07;35.05;;;-2.70;99.90;;;;;;5131434;28;20437;-83
2022/12/17 19:53:49;;;;;;;110.32;34.42;;;-2.70;99.90;;;;;;5145145;28;20035;-84
2022/12/17 19:56:18;;;;;;;119.32;37.53;;;-2.70;99.90;;;;;;5128297;28;20529;-83
2022/12/17 19:58:49;;;;;;;114.70;36.38;;;-2.80;99.90;;;;;;5131048;28;20039;-83
2022/12/17 20:01:18;;;;;;;102.15;34.28;;;-2.80;99.90;;;;;;5122689;28;20488;-82
2022/12/17 20:03:46;;;;;;;125.65;39.30;;;-2.80;99.90;;;;;;5127871;28;20168;-83
2022/12/17 20:06:15;;;;;;;113.88;36.78;;;-2.30;99.90;;;;;;5100806;28;20051;-83
2022/12/17 20:08:42;;;;;;;117.55;35.33;;;-2.80;99.90;;;;;;5057549;28;20033;-83
2022/12/17 20:14:01;;;;;;;102.00;34.25;;;-2.70;99.90;;;;;;5107016;28;20051;-81
2022/12/17 20:16:30;;;;;;;102.30;34.47;;;-1.90;99.90;;;;;;5115309;28;20432;-83
2022/12/17 20:19:02;;;;;;;105.57;34.30;;;-2.80;99.90;;;;;;5076794;28;20119;-83
2022/12/17 20:21:29;;;;;;;106.88;35.28;;;-1.80;99.90;;;;;;5106792;28;20042;-82
2022/12/17 20:23:55;;;;;;;109.97;34.72;;;-2.80;99.90;;;;;;5087457;28;20127;-83
2022/12/17 20:26:22;;;;;;;110.28;36.88;;;-2.80;99.90;;;;;;5077689;28;20044;-83
2022/12/17 20:28:49;;;;;;;106.25;34.75;;;-2.80;99.90;;;;;;5110040;28;20036;-83
2022/12/17 20:31:16;;;;;;;112.13;36.80;;;-2.80;99.90;;;;;;5110882;28;20400;-83
2022/12/17 20:33:43;;;;;;;127.22;36.28;;;-2.80;99.90;;;;;;5084629;28;20072;-82
2022/12/17 20:36:13;;;;;;;110.70;36.40;;;-2.80;99.90;;;;;;5056674;28;20079;-83
2022/12/17 20:38:42;;;;;;;114.82;35.90;;;-1.70;99.90;;;;;;5109110;28;20036;-83
2022/12/17 20:41:21;;;;;;;96.80;34.50;;;-2.80;99.90;;;;;;5126939;28;20094;-83
2022/12/17 20:43:48;;;;;;;98.03;33.92;;;-2.80;99.90;;;;;;5105759;28;20500;-83
2022/12/17 20:46:16;;;;;;;107.32;34.08;;;-2.80;99.90;;;;;;5090094;28;20041;-83
2022/12/17 20:48:44;;;;;;;104.22;33.42;;;-2.90;99.90;;;;;;5089844;28;20127;-83
2022/12/17 20:51:17;;;;;;;106.40;33.95;;;-2.80;99.90;;;;;;5057115;28;20438;-83
2022/12/17 20:53:44;;;;;;;116.70;34.15;;;-2.90;99.90;;;;;;5106425;28;20080;-83
2022/12/17 20:56:14;;;;;;;110.22;34.30;;;-2.90;99.90;;;;;;5127263;28;20109;-83
2022/12/17 20:58:41;;;;;;;112.07;35.70;;;-2.90;99.90;;;;;;5108435;28;20499;-83
2022/12/17 21:01:15;;;;;;;115.50;35.10;;;-2.90;99.90;;;;;;5124268;28;20044;-83
2022/12/17 21:03:42;;;;;;;110.68;34.63;;;-2.80;99.90;;;;;;5109818;28;20473;-83
2022/12/17 21:06:14;;;;;;;113.22;34.88;;;-2.80;99.90;;;;;;5109376;28;20036;-83
2022/12/17 21:08:42;;;;;;;115.43;35.90;;;-2.80;99.90;;;;;;5109906;28;20043;-83
2022/12/17 21:11:09;;;;;;;114.28;32.00;;;-2.80;99.90;;;;;;5110237;28;20048;-83
2022/12/17 21:13:36;;;;;;;103.32;33.67;;;-2.80;99.90;;;;;;5093327;28;20051;-83
2022/12/17 21:16:12;;;;;;;101.65;32.97;;;-2.80;99.90;;;;;;5095766;28;20040;-83
2022/12/17 21:18:39;;;;;;;112.03;33.75;;;-2.80;99.90;;;;;;5089684;28;20040;-82
2022/12/17 21:21:13;;;;;;;107.80;33.15;;;-1.90;99.90;;;;;;5092788;28;20047;-83
2022/12/17 21:23:40;;;;;;;125.32;34.05;;;-2.90;99.90;;;;;;5109382;28;20123;-83
2022/12/17 21:26:16;;;;;;;101.15;31.15;;;-2.60;99.90;;;;;;5089223;28;20044;-83
2022/12/17 21:28:45;;;;;;;100.15;30.75;;;-2.90;99.90;;;;;;5118806;28;20042;-82
2022/12/17 21:31:20;;;;;;;93.05;29.88;;;-2.90;99.90;;;;;;5114638;28;20035;-83
2022/12/17 21:33:49;;;;;;;91.97;28.70;;;-2.90;99.90;;;;;;5110331;28;20044;-84
2022/12/17 21:36:18;;;;;;;95.20;30.25;;;-2.90;99.90;;;;;;5114784;28;20070;-83
2022/12/17 21:38:45;;;;;;;89.68;29.27;;;-2.00;99.90;;;;;;5112716;28;20548;-83
2022/12/17 21:41:15;;;;;;;95.80;29.77;;;-3.00;99.90;;;;;;5109012;28;20035;-84
2022/12/17 21:43:42;;;;;;;99.78;30.88;;;-3.00;99.90;;;;;;5108965;28;20123;-84
2022/12/17 21:46:10;;;;;;;93.35;29.77;;;-3.00;99.90;;;;;;5092224;28;20064;-84
2022/12/17 21:48:39;;;;;;;94.50;30.15;;;-2.10;99.90;;;;;;5109001;28;20047;-84
2022/12/17 21:51:07;;;;;;;104.00;31.33;;;-3.00;99.90;;;;;;5109206;28;20036;-83
2022/12/17 21:53:34;;;;;;;86.95;29.63;;;-2.90;99.90;;;;;;5093184;28;20119;-84
2022/12/17 21:56:03;;;;;;;97.13;31.40;;;-3.00;99.90;;;;;;5109008;28;20040;-84
2022/12/17 21:58:30;;;;;;;87.43;29.65;;;-3.00;99.90;;;;;;5117680;28;20071;-84
2022/12/17 22:00:57;;;;;;;87.00;28.98;;;-3.00;99.90;;;;;;5108161;28;20081;-84
2022/12/17 22:03:24;;;;;;;84.60;29.52;;;-3.10;99.90;;;;;;5113181;28;20156;-84
2022/12/17 22:05:50;;;;;;;79.53;28.15;;;-3.10;99.90;;;;;;5085508;28;20037;-82
2022/12/17 22:08:17;;;;;;;88.40;27.80;;;-3.10;99.90;;;;;;5097494;28;20034;-83
2022/12/17 22:10:44;;;;;;;91.03;29.45;;;-3.20;99.90;;;;;;5075998;28;20123;-83
2022/12/17 22:15:55;;;;;;;103.53;29.98;;;-3.20;99.90;;;;;;5077718;28;20040;-82
2022/12/17 22:18:22;;;;;;;95.68;28.75;;;-3.20;99.90;;;;;;5088985;28;20457;-83
2022/12/17 22:20:57;;;;;;;102.07;30.92;;;-2.60;99.90;;;;;;5072379;28;20394;-84
2022/12/17 22:23:24;;;;;;;97.63;30.67;;;-3.20;99.90;;;;;;5101146;28;20558;-83
2022/12/17 22:25:50;;;;;;;103.95;29.45;;;-3.20;99.90;;;;;;5088894;28;20278;-84
2022/12/17 22:28:17;;;;;;;98.85;31.25;;;-3.30;99.90;;;;;;5105904;28;20439;-84
2022/12/17 22:33:29;;;;;;;91.20;29.70;;;-3.30;99.90;;;;;;5105803;28;20037;-84
2022/12/17 22:36:02;;;;;;;99.22;31.00;;;-3.30;99.90;;;;;;5088748;28;20061;-84
2022/12/17 22:38:29;;;;;;;98.53;29.30;;;-3.30;99.90;;;;;;5089280;28;20048;-83
2022/12/17 22:41:03;;;;;;;99.78;31.65;;;-3.30;99.90;;;;;;5088526;28;20049;-84
2022/12/17 22:43:30;;;;;;;101.35;31.40;;;-3.30;99.90;;;;;;5105532;28;20063;-83
2022/12/17 22:46:03;;;;;;;98.35;31.60;;;-3.30;99.90;;;;;;5072388;28;20033;-84
2022/12/17 22:48:31;;;;;;;102.05;32.22;;;-3.30;99.90;;;;;;5088824;28;20037;-83
2022/12/17 22:51:06;;;;;;;104.57;30.17;;;-3.30;99.90;;;;;;5088704;28;20040;-84
2022/12/17 22:53:33;;;;;;;92.82;31.65;;;-3.30;99.90;;;;;;5110604;28;20404;-84
2022/12/17 22:56:04;;;;;;;98.43;30.20;;;-3.30;99.90;;;;;;5125527;28;20044;-83
2022/12/17 22:58:31;;;;;;;99.78;29.98;;;-3.40;99.90;;;;;;5125657;28;20071;-83
2022/12/17 23:00:58;;;;;;;100.07;30.60;;;-3.40;99.90;;;;;;5092008;28;20044;-84
2022/12/17 23:03:25;;;;;;;97.68;30.60;;;-3.40;99.90;;;;;;5094302;28;20032;-84
2022/12/17 23:05:51;;;;;;;98.03;30.23;;;-3.40;99.90;;;;;;5075593;28;20564;-83
2022/12/17 23:08:18;;;;;;;92.43;31.38;;;-3.50;99.90;;;;;;5076334;28;20389;-84
2022/12/17 23:10:45;;;;;;;86.75;29.42;;;-3.50;99.90;;;;;;5075991;28;20040;-83
2022/12/17 23:13:11;;;;;;;96.15;30.45;;;-3.50;99.90;;;;;;5109198;28;20047;-83
2022/12/17 23:15:38;;;;;;;89.53;28.98;;;-3.10;99.90;;;;;;5089262;28;20522;-84
2022/12/17 23:18:06;;;;;;;95.95;29.98;;;-3.60;99.90;;;;;;5075628;28;20436;-84
2022/12/17 23:20:34;;;;;;;96.28;29.95;;;-3.60;99.90;;;;;;5092556;28;20047;-84
2022/12/17 23:23:01;;;;;;;94.78;30.23;;;-3.60;99.90;;;;;;5092182;28;20036;-83
2022/12/17 23:25:28;;;;;;;82.75;29.42;;;-3.70;99.90;;;;;;5112473;28;20036;-84
2022/12/17 23:27:55;;;;;;;91.38;28.50;;;-3.70;99.90;;;;;;5112622;28;20036;-83
2022/12/17 23:30:21;;;;;;;96.88;29.15;;;-3.70;99.90;;;;;;5095695;28;20050;-83
2022/12/17 23:32:48;;;;;;;90.90;28.05;;;-3.70;99.90;;;;;;5097156;28;20084;-80
2022/12/17 23:35:15;;;;;;;108.57;32.05;;;-3.70;99.90;;;;;;5122671;28;20043;-84
2022/12/17 23:37:42;;;;;;;94.80;29.88;;;-3.40;99.90;;;;;;5095716;28;20036;-84
2022/12/17 23:40:10;;;;;;;100.88;29.42;;;-3.00;99.90;;;;;;5078685;28;20043;-84
2022/12/17 23:42:37;;;;;;;102.80;30.60;;;-3.70;99.90;;;;;;5114418;28;20131;-83
2022/12/17 23:45:05;;;;;;;108.28;31.13;;;-3.80;99.90;;;;;;5116728;28;20097;-84
2022/12/17 23:47:32;;;;;;;101.13;30.73;;;-3.70;99.90;;;;;;5106767;28;20032;-83
2022/12/17 23:49:58;;;;;;;92.35;30.27;;;-3.70;99.90;;;;;;5091517;28;20128;-83
2022/12/17 23:52:25;;;;;;;100.47;30.25;;;-3.70;99.90;;;;;;5075242;28;20131;-83
2022/12/17 23:54:52;;;;;;;93.70;28.95;;;-3.70;99.90;;;;;;5057945;28;20050;-83
2022/12/17 23:57:18;;;;;;;100.10;30.25;;;-3.70;99.90;;;;;;5075541;28;20070;-84
2022/12/17 23:59:45;;;;;;;106.22;32.08;;;-3.70;99.90;;;;;;5091265;28;20044;-84
